PWSweather.com
Personal Weather Stations
Station Observations
SEVNO44
Sevno, PrimskovoSI 1276

SevnoPrimskovoSI 1276

Lat: 45.9796285, Lon: 14.924044999999978

Elevation: 1706.0368

Station Type: WS-2307

www.primskovo.eu/vreme

High Low Average
Temperature 71.2°F21.8°C 51.6°F10.9°C 59.9°F15.5°C
Dew Point 59.6°F15.3°C 49.1°F9.5°C 53.8°F12.1°C
Winds 4.9 mph 7.9 kmh Calm Calm 1.0 mph ESE1.6 kmh ESE
Wind Gusts 6.7 mph10.8 kmh -- 2.0 mph3.2 kmh
Humidity 93% 60% 81%
Pressure 30.06 in1017.9 mb 29.89 in1012.2 mb -
Precipitation 0.10 in2.5 mm - -
Hour Temp Dew Point Humidity Winds Wind Gusts Pressure Precip Precip Rate Daily Precip Total
12:37 AM 54.1°F12.3°C 51.0°F10.6°C 89% Calm Calm -- 29.89 in1012.2 mb 0.02 in0.5 mm 0.03 in0.8 mm 0.04 in1.0 mm
01:37 AM 53.4°F11.9°C 50.6°F10.3°C 90% 0.9 mph NE1.4 kmh NE 0.9 mph1.4 kmh 29.89 in1012.2 mb 0.06 in1.5 mm 0.00 in0.0 mm 0.10 in2.5 mm
02:37 AM 52.9°F11.6°C 50.0°F10.0°C 90% 0.9 mph NNE1.4 kmh NNE 0.9 mph1.4 kmh 29.89 in1012.2 mb 0.00 in0.0 mm 0.00 in0.0 mm 0.10 in2.5 mm
03:37 AM 52.5°F11.4°C 50.0°F10.0°C 91% 0.9 mph N1.4 kmh N 0.9 mph1.4 kmh 29.90 in1012.5 mb 0.00 in0.0 mm 0.00 in0.0 mm 0.10 in2.5 mm
03:45 AM 52.5°F11.4°C 50.0°F10.0°C 91% Calm Calm 0.9 mph1.4 kmh 29.90 in1012.5 mb 0.00 in0.0 mm 0.00 in0.0 mm 0.10 in2.5 mm
03:50 AM 52.5°F11.4°C 50.0°F10.0°C 91% Calm Calm -- 29.90 in1012.5 mb 0.00 in0.0 mm 0.00 in0.0 mm 0.10 in2.5 mm
03:55 AM 52.5°F11.4°C 50.0°F10.0°C 91% 0.2 mph NNE0.3 kmh NNE 1.3 mph2.1 kmh 29.90 in1012.5 mb 0.00 in0.0 mm 0.00 in0.0 mm 0.10 in2.5 mm
04:00 AM 52.3°F11.3°C 49.8°F9.9°C 91% 0.7 mph NE1.1 kmh NE 2.0 mph3.2 kmh 29.90 in1012.5 mb 0.00 in0.0 mm 0.00 in0.0 mm 0.10 in2.5 mm
04:05 AM 52.3°F11.3°C 49.8°F9.9°C 91% 0.9 mph NNE1.4 kmh NNE 2.0 mph3.2 kmh 29.90 in1012.5 mb 0.00 in0.0 mm 0.00 in0.0 mm 0.10 in2.5 mm
04:10 AM 52.3°F11.3°C 49.8°F9.9°C 91% 0.6 mph N1.0 kmh N 1.8 mph2.9 kmh 29.91 in1012.9 mb 0.00 in0.0 mm 0.00 in0.0 mm 0.10 in2.5 mm
04:15 AM 52.3°F11.3°C 49.8°F9.9°C 91% 1.0 mph NNE1.6 kmh NNE 2.0 mph3.2 kmh 29.91 in1012.9 mb 0.00 in0.0 mm 0.00 in0.0 mm 0.10 in2.5 mm
04:20 AM 52.3°F11.3°C 49.8°F9.9°C 91% 1.4 mph NE2.3 kmh NE 3.1 mph5.0 kmh 29.91 in1012.9 mb 0.00 in0.0 mm 0.00 in0.0 mm 0.10 in2.5 mm
04:25 AM 52.3°F11.3°C 49.8°F9.9°C 91% 1.7 mph NNE2.7 kmh NNE 3.1 mph5.0 kmh 29.91 in1012.9 mb 0.00 in0.0 mm 0.00 in0.0 mm 0.10 in2.5 mm
04:30 AM 52.5°F11.4°C 50.0°F10.0°C 91% 2.1 mph NNE3.4 kmh NNE 3.1 mph5.0 kmh 29.91 in1012.9 mb 0.00 in0.0 mm 0.00 in0.0 mm 0.10 in2.5 mm
04:35 AM 52.3°F11.3°C 49.8°F9.9°C 91% 1.1 mph NNE1.8 kmh NNE 2.2 mph3.5 kmh 29.91 in1012.9 mb 0.00 in0.0 mm 0.00 in0.0 mm 0.10 in2.5 mm
04:37 AM 52.3°F11.3°C 49.8°F9.9°C 91% Calm Calm -- 29.91 in1012.9 mb 0.00 in0.0 mm 0.00 in0.0 mm 0.10 in2.5 mm
04:40 AM 52.3°F11.3°C 49.8°F9.9°C 91% 0.3 mph NNE0.5 kmh NNE 2.2 mph3.5 kmh 29.91 in1012.9 mb 0.00 in0.0 mm 0.00 in0.0 mm 0.10 in2.5 mm
04:45 AM 52.3°F11.3°C 49.8°F9.9°C 91% 1.7 mph NE2.7 kmh NE 2.9 mph4.7 kmh 29.92 in1013.2 mb 0.00 in0.0 mm 0.00 in0.0 mm 0.10 in2.5 mm
04:50 AM 52.3°F11.3°C 49.8°F9.9°C 91% 2.0 mph NNE3.2 kmh NNE 2.9 mph4.7 kmh 29.91 in1012.9 mb 0.00 in0.0 mm 0.00 in0.0 mm 0.10 in2.5 mm
04:55 AM 52.3°F11.3°C 49.8°F9.9°C 91% 1.2 mph N1.9 kmh N 2.9 mph4.7 kmh 29.91 in1012.9 mb 0.00 in0.0 mm 0.00 in0.0 mm 0.10 in2.5 mm
05:00 AM 52.3°F11.3°C 49.8°F9.9°C 91% 1.0 mph NE1.6 kmh NE 1.3 mph2.1 kmh 29.91 in1012.9 mb 0.00 in0.0 mm 0.00 in0.0 mm 0.10 in2.5 mm
05:05 AM 52.3°F11.3°C 49.8°F9.9°C 91% 1.0 mph NE1.6 kmh NE 1.8 mph2.9 kmh 29.91 in1012.9 mb 0.00 in0.0 mm 0.00 in0.0 mm 0.10 in2.5 mm
05:10 AM 52.3°F11.3°C 49.8°F9.9°C 91% 1.4 mph NNE2.3 kmh NNE 2.9 mph4.7 kmh 29.92 in1013.2 mb 0.00 in0.0 mm 0.00 in0.0 mm 0.10 in2.5 mm
05:15 AM 52.3°F11.3°C 49.8°F9.9°C 91% 1.8 mph NNE2.9 kmh NNE 2.9 mph4.7 kmh 29.92 in1013.2 mb 0.00 in0.0 mm 0.00 in0.0 mm 0.10 in2.5 mm
05:20 AM 52.3°F11.3°C 49.8°F9.9°C 91% 2.1 mph NNE3.4 kmh NNE 2.2 mph3.5 kmh 29.92 in1013.2 mb 0.00 in0.0 mm 0.00 in0.0 mm 0.10 in2.5 mm
05:25 AM 52.3°F11.3°C 49.8°F9.9°C 91% 2.2 mph NNE3.5 kmh NNE 2.5 mph4.0 kmh 29.92 in1013.2 mb 0.00 in0.0 mm 0.00 in0.0 mm 0.10 in2.5 mm
05:30 AM 52.3°F11.3°C 49.8°F9.9°C 91% 1.9 mph NNE3.1 kmh NNE 2.5 mph4.0 kmh 29.92 in1013.2 mb 0.00 in0.0 mm 0.00 in0.0 mm 0.10 in2.5 mm
05:35 AM 52.2°F11.2°C 49.6°F9.8°C 91% 1.8 mph NE2.9 kmh NE 2.2 mph3.5 kmh 29.92 in1013.2 mb 0.00 in0.0 mm 0.00 in0.0 mm 0.10 in2.5 mm
05:37 AM 52.2°F11.2°C 49.6°F9.8°C 91% 1.6 mph NE2.6 kmh NE 1.6 mph2.6 kmh 29.92 in1013.2 mb 0.00 in0.0 mm 0.00 in0.0 mm 0.10 in2.5 mm
05:40 AM 52.2°F11.2°C 49.6°F9.8°C 91% 1.7 mph NE2.7 kmh NE 2.0 mph3.2 kmh 29.93 in1013.5 mb 0.00 in0.0 mm 0.00 in0.0 mm 0.10 in2.5 mm
05:45 AM 52.2°F11.2°C 49.6°F9.8°C 91% 1.5 mph NE2.4 kmh NE 1.6 mph2.6 kmh 29.93 in1013.5 mb 0.00 in0.0 mm 0.00 in0.0 mm 0.10 in2.5 mm
05:50 AM 52.0°F11.1°C 49.4°F9.7°C 91% 0.8 mph NE1.3 kmh NE 1.6 mph2.6 kmh 29.93 in1013.5 mb 0.00 in0.0 mm 0.00 in0.0 mm 0.10 in2.5 mm
05:55 AM 52.0°F11.1°C 49.4°F9.7°C 91% Calm Calm -- 29.93 in1013.5 mb 0.00 in0.0 mm 0.00 in0.0 mm 0.10 in2.5 mm
06:00 AM 52.0°F11.1°C 49.4°F9.7°C 91% 0.7 mph NNE1.1 kmh NNE 1.8 mph2.9 kmh 29.93 in1013.5 mb 0.00 in0.0 mm 0.00 in0.0 mm 0.10 in2.5 mm
06:05 AM 52.0°F11.1°C 49.4°F9.7°C 91% 1.5 mph NNE2.4 kmh NNE 1.8 mph2.9 kmh 29.93 in1013.5 mb 0.00 in0.0 mm 0.00 in0.0 mm 0.10 in2.5 mm
06:10 AM 51.8°F11.0°C 49.3°F9.6°C 91% 1.7 mph NNE2.7 kmh NNE 1.8 mph2.9 kmh 29.93 in1013.5 mb 0.00 in0.0 mm 0.00 in0.0 mm 0.10 in2.5 mm
06:15 AM 51.8°F11.0°C 49.3°F9.6°C 91% 2.1 mph NNE3.4 kmh NNE 3.8 mph6.1 kmh 29.93 in1013.5 mb 0.00 in0.0 mm 0.00 in0.0 mm 0.10 in2.5 mm
06:20 AM 51.8°F11.0°C 49.3°F9.6°C 91% 1.7 mph NNE2.7 kmh NNE 3.8 mph6.1 kmh 29.93 in1013.5 mb 0.00 in0.0 mm 0.00 in0.0 mm 0.10 in2.5 mm
06:25 AM 52.0°F11.1°C 49.4°F9.7°C 91% 0.5 mph N0.8 kmh N 1.1 mph1.8 kmh 29.93 in1013.5 mb 0.00 in0.0 mm 0.00 in0.0 mm 0.10 in2.5 mm
06:30 AM 51.8°F11.0°C 49.3°F9.6°C 91% Calm Calm -- 29.93 in1013.5 mb 0.00 in0.0 mm 0.00 in0.0 mm 0.10 in2.5 mm
06:35 AM 51.8°F11.0°C 49.3°F9.6°C 91% Calm Calm -- 29.93 in1013.5 mb 0.00 in0.0 mm 0.00 in0.0 mm 0.10 in2.5 mm
06:37 AM 51.8°F11.0°C 49.3°F9.6°C 91% Calm Calm -- 29.93 in1013.5 mb 0.00 in0.0 mm 0.00 in0.0 mm 0.10 in2.5 mm
06:40 AM 51.8°F11.0°C 49.3°F9.6°C 91% Calm Calm -- 29.93 in1013.5 mb 0.00 in0.0 mm 0.00 in0.0 mm 0.10 in2.5 mm
06:45 AM 51.6°F10.9°C 49.1°F9.5°C 91% Calm Calm -- 29.94 in1013.9 mb 0.00 in0.0 mm 0.00 in0.0 mm 0.10 in2.5 mm
06:50 AM 51.6°F10.9°C 49.1°F9.5°C 91% Calm Calm -- 29.94 in1013.9 mb 0.00 in0.0 mm 0.00 in0.0 mm 0.10 in2.5 mm
06:55 AM 51.6°F10.9°C 49.1°F9.5°C 91% Calm Calm -- 29.94 in1013.9 mb 0.00 in0.0 mm 0.00 in0.0 mm 0.10 in2.5 mm
07:00 AM 51.6°F10.9°C 49.1°F9.5°C 91% Calm Calm -- 29.94 in1013.9 mb 0.00 in0.0 mm 0.00 in0.0 mm 0.10 in2.5 mm
07:05 AM 51.6°F10.9°C 49.1°F9.5°C 91% Calm Calm -- 29.95 in1014.2 mb 0.00 in0.0 mm 0.00 in0.0 mm 0.10 in2.5 mm
07:10 AM 51.6°F10.9°C 49.1°F9.5°C 91% Calm Calm -- 29.94 in1013.9 mb 0.00 in0.0 mm 0.00 in0.0 mm 0.10 in2.5 mm
07:15 AM 51.6°F10.9°C 49.1°F9.5°C 91% Calm Calm -- 29.95 in1014.2 mb 0.00 in0.0 mm 0.00 in0.0 mm 0.10 in2.5 mm
07:20 AM 51.6°F10.9°C 49.4°F9.7°C 92% Calm Calm -- 29.95 in1014.2 mb 0.00 in0.0 mm 0.00 in0.0 mm 0.10 in2.5 mm
07:25 AM 51.6°F10.9°C 49.4°F9.7°C 92% Calm Calm -- 29.95 in1014.2 mb 0.00 in0.0 mm 0.00 in0.0 mm 0.10 in2.5 mm
07:30 AM 52.5°F11.4°C 50.3°F10.2°C 92% Calm Calm -- 29.96 in1014.6 mb 0.00 in0.0 mm 0.00 in0.0 mm 0.10 in2.5 mm
07:35 AM 53.4°F11.9°C 51.2°F10.7°C 92% Calm Calm -- 29.96 in1014.6 mb 0.00 in0.0 mm 0.00 in0.0 mm 0.10 in2.5 mm
07:37 AM 53.4°F11.9°C 51.2°F10.7°C 92% Calm Calm -- 29.96 in1014.6 mb 0.00 in0.0 mm 0.00 in0.0 mm 0.10 in2.5 mm
07:40 AM 53.6°F12.0°C 51.3°F10.7°C 92% Calm Calm -- 29.96 in1014.6 mb 0.00 in0.0 mm 0.00 in0.0 mm 0.10 in2.5 mm
07:45 AM 54.0°F12.2°C 51.7°F10.9°C 92% 0.6 mph WNW1.0 kmh WNW 1.3 mph2.1 kmh 29.96 in1014.6 mb 0.00 in0.0 mm 0.00 in0.0 mm 0.10 in2.5 mm
07:50 AM 54.0°F12.2°C 51.7°F10.9°C 92% 1.3 mph WNW2.1 kmh WNW 1.3 mph2.1 kmh 29.96 in1014.6 mb 0.00 in0.0 mm 0.00 in0.0 mm 0.10 in2.5 mm
07:55 AM 54.1°F12.3°C 51.9°F11.1°C 92% 0.9 mph WNW1.4 kmh WNW 1.3 mph2.1 kmh 29.96 in1014.6 mb 0.00 in0.0 mm 0.00 in0.0 mm 0.10 in2.5 mm
08:00 AM 54.1°F12.3°C 51.9°F11.1°C 92% 0.3 mph SW0.5 kmh SW 1.3 mph2.1 kmh 29.97 in1014.9 mb 0.00 in0.0 mm 0.00 in0.0 mm 0.10 in2.5 mm
08:05 AM 54.3°F12.4°C 52.0°F11.1°C 92% Calm Calm 0.7 mph1.1 kmh 29.97 in1014.9 mb 0.00 in0.0 mm 0.00 in0.0 mm 0.10 in2.5 mm
08:10 AM 54.5°F12.5°C 52.2°F11.2°C 92% 2.1 mph W3.4 kmh W 6.7 mph10.8 kmh 29.97 in1014.9 mb 0.00 in0.0 mm 0.00 in0.0 mm 0.10 in2.5 mm
08:15 AM 54.5°F12.5°C 52.2°F11.2°C 92% 3.3 mph W5.3 kmh W 6.7 mph10.8 kmh 29.97 in1014.9 mb 0.00 in0.0 mm 0.00 in0.0 mm 0.10 in2.5 mm
08:20 AM 54.9°F12.7°C 52.6°F11.4°C 92% 2.8 mph W4.5 kmh W 4.0 mph6.4 kmh 29.97 in1014.9 mb 0.00 in0.0 mm 0.00 in0.0 mm 0.10 in2.5 mm
08:25 AM 54.9°F12.7°C 52.6°F11.4°C 92% 2.7 mph WSW4.3 kmh WSW 4.0 mph6.4 kmh 29.98 in1015.2 mb 0.00 in0.0 mm 0.00 in0.0 mm 0.10 in2.5 mm
08:30 AM 55.0°F12.8°C 52.8°F11.6°C 92% 2.3 mph W3.7 kmh W 4.7 mph7.6 kmh 29.98 in1015.2 mb 0.00 in0.0 mm 0.00 in0.0 mm 0.10 in2.5 mm
08:35 AM 55.2°F12.9°C 52.9°F11.6°C 92% 3.4 mph WNW5.5 kmh WNW 4.7 mph7.6 kmh 29.98 in1015.2 mb 0.00 in0.0 mm 0.00 in0.0 mm 0.10 in2.5 mm
08:37 AM 55.2°F12.9°C 53.2°F11.8°C 93% Calm Calm -- 29.98 in1015.2 mb 0.00 in0.0 mm 0.00 in0.0 mm 0.10 in2.5 mm
08:40 AM 55.6°F13.1°C 53.6°F12.0°C 93% 3.2 mph WNW5.1 kmh WNW 4.7 mph7.6 kmh 29.98 in1015.2 mb 0.00 in0.0 mm 0.00 in0.0 mm 0.10 in2.5 mm
08:45 AM 55.8°F13.2°C 53.5°F11.9°C 92% 1.9 mph WNW3.1 kmh WNW 4.7 mph7.6 kmh 29.98 in1015.2 mb 0.00 in0.0 mm 0.00 in0.0 mm 0.10 in2.5 mm
08:50 AM 56.3°F13.5°C 54.0°F12.2°C 92% 1.4 mph WNW2.3 kmh WNW 2.0 mph3.2 kmh 29.98 in1015.2 mb 0.00 in0.0 mm 0.00 in0.0 mm 0.10 in2.5 mm
08:55 AM 56.8°F13.8°C 54.5°F12.5°C 92% 0.4 mph WNW0.6 kmh WNW 2.0 mph3.2 kmh 29.98 in1015.2 mb 0.00 in0.0 mm 0.00 in0.0 mm 0.10 in2.5 mm
09:00 AM 57.0°F13.9°C 54.7°F12.6°C 92% Calm Calm -- 29.98 in1015.2 mb 0.00 in0.0 mm 0.00 in0.0 mm 0.10 in2.5 mm
09:05 AM 57.9°F14.4°C 55.6°F13.1°C 92% Calm Calm -- 29.98 in1015.2 mb 0.00 in0.0 mm 0.00 in0.0 mm 0.10 in2.5 mm
09:10 AM 58.3°F14.6°C 56.0°F13.3°C 92% 1.1 mph NW1.8 kmh NW 3.4 mph5.5 kmh 29.98 in1015.2 mb 0.00 in0.0 mm 0.00 in0.0 mm 0.10 in2.5 mm
09:15 AM 58.6°F14.8°C 56.0°F13.3°C 91% 1.8 mph NW2.9 kmh NW 3.4 mph5.5 kmh 29.98 in1015.2 mb 0.00 in0.0 mm 0.00 in0.0 mm 0.10 in2.5 mm
09:20 AM 58.6°F14.8°C 56.0°F13.3°C 91% 1.6 mph E2.6 kmh E 3.4 mph5.5 kmh 29.98 in1015.2 mb 0.00 in0.0 mm 0.00 in0.0 mm 0.10 in2.5 mm
09:25 AM 59.4°F15.2°C 56.7°F13.7°C 91% 1.5 mph E2.4 kmh E 2.0 mph3.2 kmh 29.98 in1015.2 mb 0.00 in0.0 mm 0.00 in0.0 mm 0.10 in2.5 mm
09:30 AM 60.1°F15.6°C 57.1°F13.9°C 90% 1.1 mph ESE1.8 kmh ESE 2.5 mph4.0 kmh 29.98 in1015.2 mb 0.00 in0.0 mm 0.00 in0.0 mm 0.10 in2.5 mm
09:35 AM 60.4°F15.8°C 57.5°F14.2°C 90% 0.5 mph SE0.8 kmh SE 2.5 mph4.0 kmh 29.98 in1015.2 mb 0.00 in0.0 mm 0.00 in0.0 mm 0.10 in2.5 mm
09:37 AM 60.4°F15.8°C 57.5°F14.2°C 90% Calm Calm -- 29.98 in1015.2 mb 0.00 in0.0 mm 0.00 in0.0 mm 0.10 in2.5 mm
09:40 AM 60.4°F15.8°C 57.5°F14.2°C 90% Calm Calm -- 29.99 in1015.6 mb 0.00 in0.0 mm 0.00 in0.0 mm 0.10 in2.5 mm
09:45 AM 61.5°F16.4°C 58.2°F14.6°C 89% 0.9 mph SSW1.4 kmh SSW 2.5 mph4.0 kmh 29.99 in1015.6 mb 0.00 in0.0 mm 0.00 in0.0 mm 0.10 in2.5 mm
09:50 AM 61.7°F16.5°C 58.1°F14.5°C 88% 1.7 mph S2.7 kmh S 2.5 mph4.0 kmh 29.99 in1015.6 mb 0.00 in0.0 mm 0.00 in0.0 mm 0.10 in2.5 mm
09:55 AM 61.9°F16.6°C 58.3°F14.6°C 88% 1.3 mph S2.1 kmh S 1.8 mph2.9 kmh 29.99 in1015.6 mb 0.00 in0.0 mm 0.00 in0.0 mm 0.10 in2.5 mm
10:00 AM 62.2°F16.8°C 58.3°F14.6°C 87% 1.9 mph SW3.1 kmh SW 2.9 mph4.7 kmh 29.99 in1015.6 mb 0.00 in0.0 mm 0.00 in0.0 mm 0.10 in2.5 mm
10:05 AM 62.4°F16.9°C 58.5°F14.7°C 87% 2.7 mph WSW4.3 kmh WSW 3.1 mph5.0 kmh 29.99 in1015.6 mb 0.00 in0.0 mm 0.00 in0.0 mm 0.10 in2.5 mm
10:10 AM 62.4°F16.9°C 58.2°F14.6°C 86% 2.6 mph W4.2 kmh W 3.1 mph5.0 kmh 29.99 in1015.6 mb 0.00 in0.0 mm 0.00 in0.0 mm 0.10 in2.5 mm
10:15 AM 62.4°F16.9°C 57.8°F14.3°C 85% 2.6 mph W4.2 kmh W 3.1 mph5.0 kmh 29.99 in1015.6 mb 0.00 in0.0 mm 0.00 in0.0 mm 0.10 in2.5 mm
10:20 AM 62.8°F17.1°C 58.2°F14.6°C 85% 2.7 mph W4.3 kmh W 2.7 mph4.3 kmh 29.99 in1015.6 mb 0.00 in0.0 mm 0.00 in0.0 mm 0.10 in2.5 mm
10:25 AM 63.1°F17.3°C 58.6°F14.8°C 85% 2.7 mph W4.3 kmh W 2.7 mph4.3 kmh 29.99 in1015.6 mb 0.00 in0.0 mm 0.00 in0.0 mm 0.10 in2.5 mm
10:30 AM 63.5°F17.5°C 58.9°F14.9°C 85% 3.0 mph SW4.8 kmh SW 3.4 mph5.5 kmh 30.00 in1015.9 mb 0.00 in0.0 mm 0.00 in0.0 mm 0.10 in2.5 mm
10:35 AM 63.5°F17.5°C 58.9°F14.9°C 85% 3.1 mph SSW5.0 kmh SSW 3.4 mph5.5 kmh 30.00 in1015.9 mb 0.00 in0.0 mm 0.00 in0.0 mm 0.10 in2.5 mm
10:37 AM 63.5°F17.5°C 58.9°F14.9°C 85% 2.5 mph WNW4.0 kmh WNW 2.5 mph4.0 kmh 29.99 in1015.6 mb 0.00 in0.0 mm 0.00 in0.0 mm 0.10 in2.5 mm
10:40 AM 63.5°F17.5°C 58.9°F14.9°C 85% 2.6 mph WSW4.2 kmh WSW 3.4 mph5.5 kmh 30.00 in1015.9 mb 0.00 in0.0 mm 0.00 in0.0 mm 0.10 in2.5 mm
10:45 AM 64.0°F17.8°C 58.1°F14.5°C 81% 2.5 mph WNW4.0 kmh WNW 3.8 mph6.1 kmh 30.00 in1015.9 mb 0.00 in0.0 mm 0.00 in0.0 mm 0.10 in2.5 mm
10:50 AM 64.0°F17.8°C 57.4°F14.1°C 79% 2.2 mph WNW3.5 kmh WNW 3.8 mph6.1 kmh 30.00 in1015.9 mb 0.00 in0.0 mm 0.00 in0.0 mm 0.10 in2.5 mm
10:55 AM 64.2°F17.9°C 57.6°F14.2°C 79% 3.0 mph W4.8 kmh W 4.7 mph7.6 kmh 30.00 in1015.9 mb 0.00 in0.0 mm 0.00 in0.0 mm 0.10 in2.5 mm
11:00 AM 64.2°F17.9°C 57.6°F14.2°C 79% 2.4 mph W3.9 kmh W 5.8 mph9.3 kmh 30.00 in1015.9 mb 0.00 in0.0 mm 0.00 in0.0 mm 0.10 in2.5 mm
11:05 AM 64.6°F18.1°C 57.6°F14.2°C 78% 2.2 mph W3.5 kmh W 5.8 mph9.3 kmh 30.00 in1015.9 mb 0.00 in0.0 mm 0.00 in0.0 mm 0.10 in2.5 mm
11:10 AM 64.8°F18.2°C 57.7°F14.3°C 78% 3.4 mph WSW5.5 kmh WSW 5.8 mph9.3 kmh 30.00 in1015.9 mb 0.00 in0.0 mm 0.00 in0.0 mm 0.10 in2.5 mm
11:15 AM 65.1°F18.4°C 58.1°F14.5°C 78% 2.5 mph SW4.0 kmh SW 4.5 mph7.2 kmh 30.00 in1015.9 mb 0.00 in0.0 mm 0.00 in0.0 mm 0.10 in2.5 mm
11:20 AM 65.1°F18.4°C 58.1°F14.5°C 78% 2.1 mph S3.4 kmh S 4.5 mph7.2 kmh 30.00 in1015.9 mb 0.00 in0.0 mm 0.00 in0.0 mm 0.10 in2.5 mm
11:25 AM 65.1°F18.4°C 57.4°F14.1°C 76% 1.7 mph SSW2.7 kmh SSW 2.0 mph3.2 kmh 30.01 in1016.3 mb 0.00 in0.0 mm 0.00 in0.0 mm 0.10 in2.5 mm
11:30 AM 65.1°F18.4°C 57.7°F14.3°C 77% 1.7 mph WSW2.7 kmh WSW 2.0 mph3.2 kmh 30.00 in1015.9 mb 0.00 in0.0 mm 0.00 in0.0 mm 0.10 in2.5 mm
11:35 AM 66.0°F18.9°C 58.6°F14.8°C 77% 2.5 mph SW4.0 kmh SW 4.5 mph7.2 kmh 30.01 in1016.3 mb 0.00 in0.0 mm 0.00 in0.0 mm 0.10 in2.5 mm
11:37 AM 66.0°F18.9°C 58.6°F14.8°C 77% 2.2 mph SSW3.5 kmh SSW 2.2 mph3.5 kmh 30.01 in1016.3 mb 0.00 in0.0 mm 0.00 in0.0 mm 0.10 in2.5 mm
11:40 AM 66.4°F19.1°C 58.9°F14.9°C 77% 2.7 mph SW4.3 kmh SW 4.5 mph7.2 kmh 30.00 in1015.9 mb 0.00 in0.0 mm 0.00 in0.0 mm 0.10 in2.5 mm
11:45 AM 66.6°F19.2°C 58.8°F14.9°C 76% 3.7 mph WSW6.0 kmh WSW 5.8 mph9.3 kmh 30.01 in1016.3 mb 0.00 in0.0 mm 0.00 in0.0 mm 0.10 in2.5 mm
11:50 AM 66.7°F19.3°C 58.6°F14.8°C 75% 4.6 mph WSW7.4 kmh WSW 5.8 mph9.3 kmh 30.00 in1015.9 mb 0.00 in0.0 mm 0.00 in0.0 mm 0.10 in2.5 mm
11:55 AM 66.9°F19.4°C 59.1°F15.1°C 76% 3.6 mph S5.8 kmh S 5.8 mph9.3 kmh 30.00 in1015.9 mb 0.00 in0.0 mm 0.00 in0.0 mm 0.10 in2.5 mm
12:00 PM 67.1°F19.5°C 58.5°F14.7°C 74% 2.8 mph SE4.5 kmh SE 3.8 mph6.1 kmh 30.00 in1015.9 mb 0.00 in0.0 mm 0.00 in0.0 mm 0.10 in2.5 mm
12:05 PM 67.1°F19.5°C 58.9°F14.9°C 75% 2.1 mph ESE3.4 kmh ESE 2.5 mph4.0 kmh 30.00 in1015.9 mb 0.00 in0.0 mm 0.00 in0.0 mm 0.10 in2.5 mm
12:10 PM 67.3°F19.6°C 59.1°F15.1°C 75% 1.7 mph N2.7 kmh N 2.2 mph3.5 kmh 30.00 in1015.9 mb 0.00 in0.0 mm 0.00 in0.0 mm 0.10 in2.5 mm
12:15 PM 67.3°F19.6°C 59.1°F15.1°C 75% 2.9 mph SSE4.7 kmh SSE 5.8 mph9.3 kmh 30.00 in1015.9 mb 0.00 in0.0 mm 0.00 in0.0 mm 0.10 in2.5 mm
12:20 PM 67.8°F19.9°C 59.6°F15.3°C 75% 4.1 mph S6.6 kmh S 5.8 mph9.3 kmh 29.99 in1015.6 mb 0.00 in0.0 mm 0.00 in0.0 mm 0.10 in2.5 mm
12:25 PM 67.8°F19.9°C 59.6°F15.3°C 75% 3.0 mph SW4.8 kmh SW 5.8 mph9.3 kmh 29.99 in1015.6 mb 0.00 in0.0 mm 0.00 in0.0 mm 0.10 in2.5 mm
12:30 PM 67.8°F19.9°C 59.6°F15.3°C 75% 2.1 mph WSW3.4 kmh WSW 2.9 mph4.7 kmh 29.99 in1015.6 mb 0.00 in0.0 mm 0.00 in0.0 mm 0.10 in2.5 mm
12:37 PM 68.4°F20.2°C 59.4°F15.2°C 73% 2.5 mph SSW4.0 kmh SSW 2.5 mph4.0 kmh 29.99 in1015.6 mb 0.00 in0.0 mm 0.00 in0.0 mm 0.10 in2.5 mm
01:37 PM 70.0°F21.1°C 58.5°F14.7°C 67% 2.2 mph S3.5 kmh S 2.2 mph3.5 kmh 29.98 in1015.2 mb 0.00 in0.0 mm 0.00 in0.0 mm 0.10 in2.5 mm
02:37 PM 71.2°F21.8°C 58.4°F14.7°C 64% 2.2 mph SSE3.5 kmh SSE 2.2 mph3.5 kmh 29.98 in1015.2 mb 0.00 in0.0 mm 0.00 in0.0 mm 0.10 in2.5 mm
02:55 PM 70.9°F21.6°C 57.2°F14.0°C 62% 3.3 mph SSE5.3 kmh SSE 3.4 mph5.5 kmh 29.98 in1015.2 mb 0.00 in0.0 mm 0.00 in0.0 mm 0.10 in2.5 mm
03:00 PM 70.7°F21.5°C 57.5°F14.2°C 63% 2.7 mph S4.3 kmh S 3.4 mph5.5 kmh 29.98 in1015.2 mb 0.00 in0.0 mm 0.00 in0.0 mm 0.10 in2.5 mm
03:05 PM 70.7°F21.5°C 57.5°F14.2°C 63% 1.9 mph SSW3.1 kmh SSW 2.9 mph4.7 kmh 29.98 in1015.2 mb 0.00 in0.0 mm 0.00 in0.0 mm 0.10 in2.5 mm
03:10 PM 70.7°F21.5°C 57.5°F14.2°C 63% 2.0 mph SSW3.2 kmh SSW 2.9 mph4.7 kmh 29.98 in1015.2 mb 0.00 in0.0 mm 0.00 in0.0 mm 0.10 in2.5 mm
03:15 PM 70.9°F21.6°C 58.1°F14.5°C 64% 2.6 mph S4.2 kmh S 3.6 mph5.8 kmh 29.98 in1015.2 mb 0.00 in0.0 mm 0.00 in0.0 mm 0.10 in2.5 mm
03:20 PM 70.9°F21.6°C 58.1°F14.5°C 64% 3.7 mph S6.0 kmh S 4.7 mph7.6 kmh 29.98 in1015.2 mb 0.00 in0.0 mm 0.00 in0.0 mm 0.10 in2.5 mm
03:25 PM 70.9°F21.6°C 56.8°F13.8°C 61% 4.7 mph SSE7.6 kmh SSE 4.9 mph7.9 kmh 29.98 in1015.2 mb 0.00 in0.0 mm 0.00 in0.0 mm 0.10 in2.5 mm
03:30 PM 70.9°F21.6°C 56.3°F13.5°C 60% 4.8 mph SSE7.7 kmh SSE 4.9 mph7.9 kmh 29.98 in1015.2 mb 0.00 in0.0 mm 0.00 in0.0 mm 0.10 in2.5 mm
03:35 PM 70.5°F21.4°C 56.4°F13.6°C 61% 3.9 mph S6.3 kmh S 4.9 mph7.9 kmh 29.98 in1015.2 mb 0.00 in0.0 mm 0.00 in0.0 mm 0.10 in2.5 mm
03:40 PM 70.5°F21.4°C 56.4°F13.6°C 61% 3.1 mph S5.0 kmh S 4.3 mph6.9 kmh 29.99 in1015.6 mb 0.00 in0.0 mm 0.00 in0.0 mm 0.10 in2.5 mm
03:45 PM 70.3°F21.3°C 56.2°F13.4°C 61% 3.2 mph S5.1 kmh S 3.6 mph5.8 kmh 29.99 in1015.6 mb 0.00 in0.0 mm 0.00 in0.0 mm 0.10 in2.5 mm
03:50 PM 70.2°F21.2°C 56.5°F13.6°C 62% 3.0 mph S4.8 kmh S 3.6 mph5.8 kmh 29.99 in1015.6 mb 0.00 in0.0 mm 0.00 in0.0 mm 0.10 in2.5 mm
03:55 PM 70.0°F21.1°C 56.4°F13.6°C 62% 2.8 mph S4.5 kmh S 3.6 mph5.8 kmh 29.98 in1015.2 mb 0.00 in0.0 mm 0.00 in0.0 mm 0.10 in2.5 mm
04:00 PM 70.0°F21.1°C 56.8°F13.8°C 63% 2.5 mph S4.0 kmh S 3.8 mph6.1 kmh 29.99 in1015.6 mb 0.00 in0.0 mm 0.00 in0.0 mm 0.10 in2.5 mm
04:05 PM 70.0°F21.1°C 56.4°F13.6°C 62% 1.4 mph S2.3 kmh S 3.8 mph6.1 kmh 29.99 in1015.6 mb 0.00 in0.0 mm 0.00 in0.0 mm 0.10 in2.5 mm
04:10 PM 70.0°F21.1°C 56.8°F13.8°C 63% 0.2 mph SSE0.3 kmh SSE 3.8 mph6.1 kmh 29.99 in1015.6 mb 0.00 in0.0 mm 0.00 in0.0 mm 0.10 in2.5 mm
04:15 PM 70.0°F21.1°C 56.8°F13.8°C 63% Calm Calm -- 30.00 in1015.9 mb 0.00 in0.0 mm 0.00 in0.0 mm 0.10 in2.5 mm
04:20 PM 70.0°F21.1°C 57.2°F14.0°C 64% 0.8 mph S1.3 kmh S 2.7 mph4.3 kmh 29.99 in1015.6 mb 0.00 in0.0 mm 0.00 in0.0 mm 0.10 in2.5 mm
04:25 PM 70.0°F21.1°C 57.2°F14.0°C 64% 2.0 mph SSE3.2 kmh SSE 2.7 mph4.3 kmh 29.99 in1015.6 mb 0.00 in0.0 mm 0.00 in0.0 mm 0.10 in2.5 mm
04:30 PM 69.6°F20.9°C 56.9°F13.8°C 64% 2.0 mph S3.2 kmh S 2.7 mph4.3 kmh 29.99 in1015.6 mb 0.00 in0.0 mm 0.00 in0.0 mm 0.10 in2.5 mm
04:35 PM 69.6°F20.9°C 56.9°F13.8°C 64% 1.7 mph S2.7 kmh S 2.2 mph3.5 kmh 29.99 in1015.6 mb 0.00 in0.0 mm 0.00 in0.0 mm 0.10 in2.5 mm
04:40 PM 69.1°F20.6°C 56.8°F13.8°C 65% 2.4 mph SSE3.9 kmh SSE 3.6 mph5.8 kmh 29.99 in1015.6 mb 0.00 in0.0 mm 0.00 in0.0 mm 0.10 in2.5 mm
04:45 PM 68.7°F20.4°C 56.5°F13.6°C 65% 1.6 mph SSE2.6 kmh SSE 3.6 mph5.8 kmh 29.99 in1015.6 mb 0.00 in0.0 mm 0.00 in0.0 mm 0.10 in2.5 mm
04:50 PM 68.5°F20.3°C 56.3°F13.5°C 65% 0.3 mph SSW0.5 kmh SSW 2.2 mph3.5 kmh 30.00 in1015.9 mb 0.00 in0.0 mm 0.00 in0.0 mm 0.10 in2.5 mm
04:55 PM 68.4°F20.2°C 56.1°F13.4°C 65% 2.0 mph S3.2 kmh S 5.1 mph8.2 kmh 29.99 in1015.6 mb 0.00 in0.0 mm 0.00 in0.0 mm 0.10 in2.5 mm
05:00 PM 68.2°F20.1°C 56.4°F13.6°C 66% 4.3 mph SSE6.9 kmh SSE 5.1 mph8.2 kmh 30.00 in1015.9 mb 0.00 in0.0 mm 0.00 in0.0 mm 0.10 in2.5 mm
05:05 PM 67.8°F19.9°C 56.5°F13.6°C 67% 4.3 mph SSE6.9 kmh SSE 5.4 mph8.7 kmh 29.99 in1015.6 mb 0.00 in0.0 mm 0.00 in0.0 mm 0.10 in2.5 mm
05:10 PM 67.8°F19.9°C 56.5°F13.6°C 67% 4.6 mph S7.4 kmh S 5.4 mph8.7 kmh 30.00 in1015.9 mb 0.00 in0.0 mm 0.00 in0.0 mm 0.10 in2.5 mm
05:15 PM 67.3°F19.6°C 55.9°F13.3°C 67% 4.7 mph S7.6 kmh S 5.4 mph8.7 kmh 30.00 in1015.9 mb 0.00 in0.0 mm 0.00 in0.0 mm 0.10 in2.5 mm
05:20 PM 66.9°F19.4°C 56.0°F13.3°C 68% 4.4 mph SE7.1 kmh SE 5.4 mph8.7 kmh 30.00 in1015.9 mb 0.00 in0.0 mm 0.00 in0.0 mm 0.10 in2.5 mm
05:25 PM 66.7°F19.3°C 55.8°F13.2°C 68% 3.4 mph SE5.5 kmh SE 4.9 mph7.9 kmh 30.00 in1015.9 mb 0.00 in0.0 mm 0.00 in0.0 mm 0.10 in2.5 mm
05:30 PM 66.7°F19.3°C 55.8°F13.2°C 68% 2.3 mph ESE3.7 kmh ESE 4.3 mph6.9 kmh 30.00 in1015.9 mb 0.00 in0.0 mm 0.00 in0.0 mm 0.10 in2.5 mm
05:35 PM 65.8°F18.8°C 55.4°F13.0°C 69% 2.2 mph ESE3.5 kmh ESE 4.3 mph6.9 kmh 30.00 in1015.9 mb 0.00 in0.0 mm 0.00 in0.0 mm 0.10 in2.5 mm
05:40 PM 65.8°F18.8°C 55.4°F13.0°C 69% 0.9 mph E1.4 kmh E 4.3 mph6.9 kmh 30.00 in1015.9 mb 0.00 in0.0 mm 0.00 in0.0 mm 0.10 in2.5 mm
05:45 PM 65.1°F18.4°C 55.1°F12.8°C 70% 0.9 mph SE1.4 kmh SE 3.1 mph5.0 kmh 30.00 in1015.9 mb 0.00 in0.0 mm 0.00 in0.0 mm 0.10 in2.5 mm
05:50 PM 64.8°F18.2°C 54.7°F12.6°C 70% 3.0 mph SE4.8 kmh SE 5.6 mph9.0 kmh 30.00 in1015.9 mb 0.00 in0.0 mm 0.00 in0.0 mm 0.10 in2.5 mm
05:55 PM 64.6°F18.1°C 54.6°F12.6°C 70% 4.9 mph ESE7.9 kmh ESE 5.6 mph9.0 kmh 30.00 in1015.9 mb 0.00 in0.0 mm 0.00 in0.0 mm 0.10 in2.5 mm
06:00 PM 64.2°F17.9°C 54.6°F12.6°C 71% 4.4 mph ESE7.1 kmh ESE 5.6 mph9.0 kmh 30.01 in1016.3 mb 0.00 in0.0 mm 0.00 in0.0 mm 0.10 in2.5 mm
06:05 PM 64.0°F17.8°C 54.4°F12.4°C 71% 2.3 mph E3.7 kmh E 5.6 mph9.0 kmh 30.00 in1015.9 mb 0.00 in0.0 mm 0.00 in0.0 mm 0.10 in2.5 mm
06:10 PM 63.7°F17.6°C 54.1°F12.3°C 71% 1.5 mph ENE2.4 kmh ENE 2.5 mph4.0 kmh 30.01 in1016.3 mb 0.00 in0.0 mm 0.00 in0.0 mm 0.10 in2.5 mm
06:15 PM 63.7°F17.6°C 54.1°F12.3°C 71% 2.0 mph NE3.2 kmh NE 3.6 mph5.8 kmh 30.01 in1016.3 mb 0.00 in0.0 mm 0.00 in0.0 mm 0.10 in2.5 mm
06:20 PM 63.3°F17.4°C 54.1°F12.3°C 72% 2.6 mph NE4.2 kmh NE 3.6 mph5.8 kmh 30.01 in1016.3 mb 0.00 in0.0 mm 0.00 in0.0 mm 0.10 in2.5 mm
06:25 PM 63.1°F17.3°C 54.0°F12.2°C 72% 1.6 mph NE2.6 kmh NE 3.6 mph5.8 kmh 30.01 in1016.3 mb 0.00 in0.0 mm 0.00 in0.0 mm 0.10 in2.5 mm
06:30 PM 63.0°F17.2°C 53.8°F12.1°C 72% 0.4 mph ENE0.6 kmh ENE 1.6 mph2.6 kmh 30.01 in1016.3 mb 0.00 in0.0 mm 0.00 in0.0 mm 0.10 in2.5 mm
06:35 PM 62.8°F17.1°C 53.6°F12.0°C 72% 0.3 mph E0.5 kmh E 1.6 mph2.6 kmh 30.01 in1016.3 mb 0.00 in0.0 mm 0.00 in0.0 mm 0.10 in2.5 mm
06:40 PM 62.4°F16.9°C 53.6°F12.0°C 73% 0.3 mph E0.5 kmh E 2.0 mph3.2 kmh 30.01 in1016.3 mb 0.00 in0.0 mm 0.00 in0.0 mm 0.10 in2.5 mm
06:45 PM 62.2°F16.8°C 53.5°F11.9°C 73% 0.6 mph NE1.0 kmh NE 2.0 mph3.2 kmh 30.01 in1016.3 mb 0.00 in0.0 mm 0.00 in0.0 mm 0.10 in2.5 mm
06:50 PM 62.2°F16.8°C 53.5°F11.9°C 73% 1.0 mph NNE1.6 kmh NNE 2.0 mph3.2 kmh 30.01 in1016.3 mb 0.00 in0.0 mm 0.00 in0.0 mm 0.10 in2.5 mm
06:55 PM 62.2°F16.8°C 53.5°F11.9°C 73% 0.5 mph N0.8 kmh N 1.3 mph2.1 kmh 30.02 in1016.6 mb 0.00 in0.0 mm 0.00 in0.0 mm 0.10 in2.5 mm
07:00 PM 62.2°F16.8°C 53.5°F11.9°C 73% Calm Calm -- 30.02 in1016.6 mb 0.00 in0.0 mm 0.00 in0.0 mm 0.10 in2.5 mm
07:05 PM 61.5°F16.4°C 53.2°F11.8°C 74% 1.1 mph E1.8 kmh E 2.7 mph4.3 kmh 30.02 in1016.6 mb 0.00 in0.0 mm 0.00 in0.0 mm 0.10 in2.5 mm
07:10 PM 61.5°F16.4°C 53.5°F11.9°C 75% 1.5 mph ENE2.4 kmh ENE 2.7 mph4.3 kmh 30.02 in1016.6 mb 0.00 in0.0 mm 0.00 in0.0 mm 0.10 in2.5 mm
07:15 PM 61.3°F16.3°C 53.3°F11.8°C 75% 1.3 mph NE2.1 kmh NE 3.4 mph5.5 kmh 30.02 in1016.6 mb 0.00 in0.0 mm 0.00 in0.0 mm 0.10 in2.5 mm
07:20 PM 61.3°F16.3°C 53.3°F11.8°C 75% 2.1 mph E3.4 kmh E 3.4 mph5.5 kmh 30.02 in1016.6 mb 0.00 in0.0 mm 0.00 in0.0 mm 0.10 in2.5 mm
07:25 PM 61.2°F16.2°C 53.5°F11.9°C 76% 1.5 mph E2.4 kmh E 3.4 mph5.5 kmh 30.02 in1016.6 mb 0.00 in0.0 mm 0.00 in0.0 mm 0.10 in2.5 mm
07:30 PM 61.0°F16.1°C 53.4°F11.9°C 76% 0.3 mph NE0.5 kmh NE 1.3 mph2.1 kmh 30.02 in1016.6 mb 0.00 in0.0 mm 0.00 in0.0 mm 0.10 in2.5 mm
07:35 PM 61.0°F16.1°C 53.4°F11.9°C 76% 0.8 mph NE1.3 kmh NE 1.8 mph2.9 kmh 30.02 in1016.6 mb 0.00 in0.0 mm 0.00 in0.0 mm 0.10 in2.5 mm
07:40 PM 60.6°F15.9°C 53.0°F11.7°C 76% 1.0 mph NE1.6 kmh NE 1.8 mph2.9 kmh 30.02 in1016.6 mb 0.00 in0.0 mm 0.00 in0.0 mm 0.10 in2.5 mm
07:45 PM 60.6°F15.9°C 53.0°F11.7°C 76% 0.6 mph NE1.0 kmh NE 1.6 mph2.6 kmh 30.02 in1016.6 mb 0.00 in0.0 mm 0.00 in0.0 mm 0.10 in2.5 mm
07:50 PM 60.6°F15.9°C 53.0°F11.7°C 76% 1.1 mph NE1.8 kmh NE 1.6 mph2.6 kmh 30.03 in1016.9 mb 0.00 in0.0 mm 0.00 in0.0 mm 0.10 in2.5 mm
07:55 PM 60.4°F15.8°C 53.2°F11.8°C 77% 1.3 mph NE2.1 kmh NE 1.6 mph2.6 kmh 30.04 in1017.3 mb 0.00 in0.0 mm 0.00 in0.0 mm 0.10 in2.5 mm
08:00 PM 60.4°F15.8°C 53.2°F11.8°C 77% 0.7 mph NE1.1 kmh NE 1.6 mph2.6 kmh 30.04 in1017.3 mb 0.00 in0.0 mm 0.00 in0.0 mm 0.10 in2.5 mm
08:05 PM 60.1°F15.6°C 52.8°F11.6°C 77% 0.3 mph NE0.5 kmh NE 1.8 mph2.9 kmh 30.03 in1016.9 mb 0.00 in0.0 mm 0.00 in0.0 mm 0.10 in2.5 mm
08:10 PM 60.1°F15.6°C 52.8°F11.6°C 77% 1.0 mph NE1.6 kmh NE 1.8 mph2.9 kmh 30.03 in1016.9 mb 0.00 in0.0 mm 0.00 in0.0 mm 0.10 in2.5 mm
08:15 PM 60.1°F15.6°C 53.2°F11.8°C 78% 0.9 mph NE1.4 kmh NE 1.8 mph2.9 kmh 30.03 in1016.9 mb 0.00 in0.0 mm 0.00 in0.0 mm 0.10 in2.5 mm
08:20 PM 59.9°F15.5°C 53.0°F11.7°C 78% 0.7 mph NE1.1 kmh NE 1.6 mph2.6 kmh 30.03 in1016.9 mb 0.00 in0.0 mm 0.00 in0.0 mm 0.10 in2.5 mm
08:25 PM 59.7°F15.4°C 52.8°F11.6°C 78% 0.7 mph NE1.1 kmh NE 1.6 mph2.6 kmh 30.04 in1017.3 mb 0.00 in0.0 mm 0.00 in0.0 mm 0.10 in2.5 mm
08:30 PM 59.7°F15.4°C 52.8°F11.6°C 78% 0.9 mph NE1.4 kmh NE 1.6 mph2.6 kmh 30.04 in1017.3 mb 0.00 in0.0 mm 0.00 in0.0 mm 0.10 in2.5 mm
08:35 PM 59.5°F15.3°C 53.0°F11.7°C 79% 0.8 mph NE1.3 kmh NE 1.6 mph2.6 kmh 30.04 in1017.3 mb 0.00 in0.0 mm 0.00 in0.0 mm 0.10 in2.5 mm
08:40 PM 59.5°F15.3°C 53.0°F11.7°C 79% 0.1 mph ENE0.2 kmh ENE 1.6 mph2.6 kmh 30.04 in1017.3 mb 0.00 in0.0 mm 0.00 in0.0 mm 0.10 in2.5 mm
08:45 PM 59.5°F15.3°C 53.0°F11.7°C 79% 0.9 mph SE1.4 kmh SE 2.5 mph4.0 kmh 30.04 in1017.3 mb 0.00 in0.0 mm 0.00 in0.0 mm 0.10 in2.5 mm
08:50 PM 59.5°F15.3°C 53.4°F11.9°C 80% 2.1 mph SE3.4 kmh SE 2.7 mph4.3 kmh 30.04 in1017.3 mb 0.00 in0.0 mm 0.00 in0.0 mm 0.10 in2.5 mm
08:55 PM 59.5°F15.3°C 53.4°F11.9°C 80% 1.4 mph SE2.3 kmh SE 2.7 mph4.3 kmh 30.04 in1017.3 mb 0.00 in0.0 mm 0.00 in0.0 mm 0.10 in2.5 mm
09:00 PM 59.5°F15.3°C 53.4°F11.9°C 80% 0.2 mph ESE0.3 kmh ESE 1.3 mph2.1 kmh 30.04 in1017.3 mb 0.00 in0.0 mm 0.00 in0.0 mm 0.10 in2.5 mm
09:05 PM 59.4°F15.2°C 53.2°F11.8°C 80% 0.3 mph NE0.5 kmh NE 1.3 mph2.1 kmh 30.04 in1017.3 mb 0.00 in0.0 mm 0.00 in0.0 mm 0.10 in2.5 mm
09:10 PM 59.4°F15.2°C 53.2°F11.8°C 80% 0.8 mph E1.3 kmh E 1.6 mph2.6 kmh 30.04 in1017.3 mb 0.00 in0.0 mm 0.00 in0.0 mm 0.10 in2.5 mm
09:15 PM 59.2°F15.1°C 53.0°F11.7°C 80% 1.3 mph E2.1 kmh E 1.6 mph2.6 kmh 30.05 in1017.6 mb 0.00 in0.0 mm 0.00 in0.0 mm 0.10 in2.5 mm
09:20 PM 59.2°F15.1°C 53.0°F11.7°C 80% 0.8 mph ENE1.3 kmh ENE 1.6 mph2.6 kmh 30.05 in1017.6 mb 0.00 in0.0 mm 0.00 in0.0 mm 0.10 in2.5 mm
09:25 PM 59.0°F15.0°C 52.8°F11.6°C 80% 0.1 mph NE0.2 kmh NE 1.6 mph2.6 kmh 30.04 in1017.3 mb 0.00 in0.0 mm 0.00 in0.0 mm 0.10 in2.5 mm
09:30 PM 58.8°F14.9°C 52.7°F11.5°C 80% 0.3 mph NE0.5 kmh NE 1.6 mph2.6 kmh 30.04 in1017.3 mb 0.00 in0.0 mm 0.00 in0.0 mm 0.10 in2.5 mm
09:35 PM 58.8°F14.9°C 52.7°F11.5°C 80% 0.3 mph NE0.5 kmh NE 1.6 mph2.6 kmh 30.05 in1017.6 mb 0.00 in0.0 mm 0.00 in0.0 mm 0.10 in2.5 mm
09:40 PM 58.8°F14.9°C 52.7°F11.5°C 80% 0.1 mph NE0.2 kmh NE 1.6 mph2.6 kmh 30.05 in1017.6 mb 0.00 in0.0 mm 0.00 in0.0 mm 0.10 in2.5 mm
09:45 PM 58.8°F14.9°C 52.7°F11.5°C 80% Calm Calm -- 30.04 in1017.3 mb 0.00 in0.0 mm 0.00 in0.0 mm 0.10 in2.5 mm
09:50 PM 58.6°F14.8°C 52.8°F11.6°C 81% Calm Calm -- 30.05 in1017.6 mb 0.00 in0.0 mm 0.00 in0.0 mm 0.10 in2.5 mm
09:55 PM 58.6°F14.8°C 52.8°F11.6°C 81% Calm Calm -- 30.05 in1017.6 mb 0.00 in0.0 mm 0.00 in0.0 mm 0.10 in2.5 mm
10:00 PM 58.3°F14.6°C 52.5°F11.4°C 81% 0.1 mph NNE0.2 kmh NNE 0.9 mph1.4 kmh 30.04 in1017.3 mb 0.00 in0.0 mm 0.00 in0.0 mm 0.10 in2.5 mm
10:05 PM 58.1°F14.5°C 52.3°F11.3°C 81% 0.7 mph NNE1.1 kmh NNE 1.1 mph1.8 kmh 30.05 in1017.6 mb 0.00 in0.0 mm 0.00 in0.0 mm 0.10 in2.5 mm
10:10 PM 58.1°F14.5°C 52.3°F11.3°C 81% 1.1 mph NNE1.8 kmh NNE 1.3 mph2.1 kmh 30.05 in1017.6 mb 0.00 in0.0 mm 0.00 in0.0 mm 0.10 in2.5 mm
10:15 PM 57.9°F14.4°C 52.1°F11.2°C 81% 1.0 mph NNE1.6 kmh NNE 1.3 mph2.1 kmh 30.05 in1017.6 mb 0.00 in0.0 mm 0.00 in0.0 mm 0.10 in2.5 mm
10:20 PM 57.9°F14.4°C 52.1°F11.2°C 81% 0.6 mph NNE1.0 kmh NNE 1.3 mph2.1 kmh 30.05 in1017.6 mb 0.00 in0.0 mm 0.00 in0.0 mm 0.10 in2.5 mm
10:25 PM 57.9°F14.4°C 52.1°F11.2°C 81% 0.2 mph NNE0.3 kmh NNE 1.1 mph1.8 kmh 30.05 in1017.6 mb 0.00 in0.0 mm 0.00 in0.0 mm 0.10 in2.5 mm
10:30 PM 57.7°F14.3°C 52.3°F11.3°C 82% Calm Calm -- 30.05 in1017.6 mb 0.00 in0.0 mm 0.00 in0.0 mm 0.10 in2.5 mm
10:35 PM 57.7°F14.3°C 52.3°F11.3°C 82% Calm Calm 0.9 mph1.4 kmh 30.05 in1017.6 mb 0.00 in0.0 mm 0.00 in0.0 mm 0.10 in2.5 mm
10:40 PM 57.7°F14.3°C 52.3°F11.3°C 82% 0.5 mph NNE0.8 kmh NNE 0.9 mph1.4 kmh 30.05 in1017.6 mb 0.00 in0.0 mm 0.00 in0.0 mm 0.10 in2.5 mm
10:45 PM 57.6°F14.2°C 52.1°F11.2°C 82% 0.6 mph NNE1.0 kmh NNE 0.9 mph1.4 kmh 30.05 in1017.6 mb 0.00 in0.0 mm 0.00 in0.0 mm 0.10 in2.5 mm
10:50 PM 57.4°F14.1°C 51.9°F11.1°C 82% 0.1 mph NNE0.2 kmh NNE 0.9 mph1.4 kmh 30.05 in1017.6 mb 0.00 in0.0 mm 0.00 in0.0 mm 0.10 in2.5 mm
10:55 PM 57.4°F14.1°C 51.9°F11.1°C 82% Calm Calm -- 30.05 in1017.6 mb 0.00 in0.0 mm 0.00 in0.0 mm 0.10 in2.5 mm
11:00 PM 57.4°F14.1°C 51.9°F11.1°C 82% Calm Calm -- 30.05 in1017.6 mb 0.00 in0.0 mm 0.00 in0.0 mm 0.06 in1.5 mm
11:05 PM 57.0°F13.9°C 51.6°F10.9°C 82% 0.3 mph NNE0.5 kmh NNE 1.3 mph2.1 kmh 30.05 in1017.6 mb 0.00 in0.0 mm 0.00 in0.0 mm 0.06 in1.5 mm
11:10 PM 57.0°F13.9°C 51.6°F10.9°C 82% 0.3 mph NNE0.5 kmh NNE 1.3 mph2.1 kmh 30.05 in1017.6 mb 0.00 in0.0 mm 0.00 in0.0 mm 0.06 in1.5 mm
11:15 PM 57.0°F13.9°C 51.9°F11.1°C 83% 0.6 mph NNE1.0 kmh NNE 1.6 mph2.6 kmh 30.05 in1017.6 mb 0.00 in0.0 mm 0.00 in0.0 mm 0.06 in1.5 mm
11:20 PM 56.8°F13.8°C 51.7°F10.9°C 83% 1.0 mph NNE1.6 kmh NNE 1.6 mph2.6 kmh 30.05 in1017.6 mb 0.00 in0.0 mm 0.00 in0.0 mm 0.06 in1.5 mm
11:25 PM 56.8°F13.8°C 51.7°F10.9°C 83% 0.4 mph NNE0.6 kmh NNE 1.6 mph2.6 kmh 30.05 in1017.6 mb 0.00 in0.0 mm 0.00 in0.0 mm 0.06 in1.5 mm
11:30 PM 56.8°F13.8°C 51.7°F10.9°C 83% Calm Calm -- 30.05 in1017.6 mb 0.00 in0.0 mm 0.00 in0.0 mm 0.06 in1.5 mm
11:35 PM 56.8°F13.8°C 52.1°F11.2°C 84% Calm Calm -- 30.05 in1017.6 mb 0.00 in0.0 mm 0.00 in0.0 mm 0.06 in1.5 mm
11:40 PM 56.8°F13.8°C 52.1°F11.2°C 84% 0.1 mph NW0.2 kmh NW 1.1 mph1.8 kmh 30.05 in1017.6 mb 0.00 in0.0 mm 0.00 in0.0 mm 0.06 in1.5 mm
11:45 PM 56.8°F13.8°C 52.1°F11.2°C 84% 0.7 mph NW1.1 kmh NW 1.1 mph1.8 kmh 30.06 in1017.9 mb 0.00 in0.0 mm 0.00 in0.0 mm 0.06 in1.5 mm
11:50 PM 56.7°F13.7°C 51.9°F11.1°C 84% 0.6 mph NW1.0 kmh NW 1.1 mph1.8 kmh 30.06 in1017.9 mb 0.00 in0.0 mm 0.00 in0.0 mm 0.06 in1.5 mm
11:55 PM 56.5°F13.6°C 51.7°F10.9°C 84% Calm Calm 1.1 mph1.8 kmh 30.05 in1017.6 mb 0.00 in0.0 mm 0.00 in0.0 mm 0.06 in1.5 mm